Time;durP1;ratioP1;P1;durP2;ratioP2;P2;SDS_P1;SDS_P2;PMS_P1;PMS_P2;Temp;Humidity;BMP_temperature;BMP_pressure;BME280_temperature;BME280_humidity;BME280_pressure;Samples;Min_cycle;Max_cycle;Signal;HPM_P1;HPM_P2
2022/04/09 00:02:41;;;;;;;10.27;9.57;;;;;;;22.62;32.85;94190.53;6148411;28;103855;-79
2022/04/09 00:05:43;;;;;;;9.40;8.60;;;;;;;22.62;33.42;94188.66;6151527;28;102780;-76
2022/04/09 00:08:46;;;;;;;9.40;8.70;;;;;;;22.56;33.20;94173.97;6151246;28;102832;-76
2022/04/09 00:11:47;;;;;;;9.63;8.80;;;;;;;22.60;33.10;94195.44;6153812;28;102904;-76
2022/04/09 00:14:50;;;;;;;9.07;8.37;;;;;;;22.62;33.09;94194.00;6127596;28;102768;-77
2022/04/09 00:17:52;;;;;;;8.87;8.17;;;;;;;22.58;32.90;94197.66;6143413;28;103197;-78
2022/04/09 00:20:55;;;;;;;8.60;7.90;;;;;;;22.61;33.25;94197.78;6150806;28;102769;-78
2022/04/09 00:23:58;;;;;;;8.30;7.73;;;;;;;22.61;32.91;94202.31;6163752;28;102745;-79
2022/04/09 00:27:00;;;;;;;7.63;7.03;;;;;;;22.58;33.42;94198.44;6149568;28;103355;-78
2022/04/09 00:30:07;;;;;;;8.87;8.07;;;;;;;22.55;33.32;94182.28;6165301;28;102657;-78
2022/04/09 00:33:09;;;;;;;8.50;7.80;;;;;;;22.46;33.09;94170.91;6141898;28;102784;-78
2022/04/09 00:36:11;;;;;;;8.40;7.70;;;;;;;22.56;33.30;94184.63;6127971;28;103479;-78
2022/04/09 00:39:12;;;;;;;8.30;7.60;;;;;;;22.59;32.81;94194.66;6147305;28;104487;-78
2022/04/09 00:42:16;;;;;;;7.73;7.20;;;;;;;22.54;33.03;94191.41;6147860;28;102687;-78
2022/04/09 00:45:18;;;;;;;8.07;7.40;;;;;;;22.54;33.19;94175.41;6161944;28;103064;-78
2022/04/09 00:48:22;;;;;;;7.83;7.23;;;;;;;22.50;33.14;94172.59;6146951;28;103170;-78
2022/04/09 00:51:23;;;;;;;7.40;6.80;;;;;;;22.46;32.95;94163.69;6147534;28;102809;-79
2022/04/09 00:54:29;;;;;;;8.07;7.47;;;;;;;22.44;33.55;94149.91;6147662;28;102873;-80
2022/04/09 00:57:44;;;;;;;7.50;7.00;;;;;;;22.57;32.94;94180.88;6144249;28;102847;-77
2022/04/09 01:00:46;;;;;;;7.27;6.67;;;;;;;22.57;33.14;94172.09;6152361;28;103149;-79
2022/04/09 01:03:50;;;;;;;8.30;7.60;;;;;;;22.53;33.10;94163.19;6152673;28;102681;-80
2022/04/09 01:06:53;;;;;;;7.40;6.90;;;;;;;22.57;33.07;94161.44;6147751;28;103698;-77
2022/04/09 01:09:55;;;;;;;6.97;6.47;;;;;;;22.56;33.51;94160.63;6154464;28;103224;-79
2022/04/09 01:12:59;;;;;;;7.63;7.03;;;;;;;22.45;33.09;94135.47;6173560;28;102562;-79
2022/04/09 01:16:01;;;;;;;7.00;6.47;;;;;;;22.55;33.23;94155.63;6172145;28;102791;-76
2022/04/09 01:19:15;;;;;;;7.60;7.00;;;;;;;22.55;33.46;94147.63;6154426;28;102790;-79
2022/04/09 01:22:22;;;;;;;7.20;6.60;;;;;;;22.53;33.17;94153.28;6156577;28;103552;-78
2022/04/09 01:25:27;;;;;;;6.80;6.30;;;;;;;22.51;33.06;94146.72;6157844;28;103004;-80
2022/04/09 01:28:31;;;;;;;7.00;6.50;;;;;;;22.50;33.07;94142.47;6154262;28;102695;-79
2022/04/09 01:31:33;;;;;;;7.23;6.73;;;;;;;22.54;33.52;94162.84;6165818;28;103244;-78
2022/04/09 01:34:35;;;;;;;7.10;6.50;;;;;;;22.54;33.41;94159.41;6163680;28;104284;-78
2022/04/09 01:37:37;;;;;;;6.70;6.20;;;;;;;22.55;32.96;94153.75;6155829;28;102724;-78
2022/04/09 01:40:39;;;;;;;7.37;6.77;;;;;;;22.51;33.38;94152.81;6140505;28;103875;-79
2022/04/09 01:43:41;;;;;;;7.97;6.97;;;;;;;22.50;33.35;94153.16;6146958;28;102772;-79
2022/04/09 01:46:44;;;;;;;7.70;7.10;;;;;;;22.53;33.25;94153.28;6175271;28;103066;-78
2022/04/09 01:49:47;;;;;;;6.60;6.00;;;;;;;22.50;33.25;94143.25;6146376;28;102752;-78
2022/04/09 01:52:49;;;;;;;6.97;6.37;;;;;;;22.53;33.10;94153.28;6143319;28;102768;-78
2022/04/09 01:55:51;;;;;;;6.73;6.23;;;;;;;22.53;33.10;94153.28;6162670;28;102758;-78
2022/04/09 01:58:53;;;;;;;7.90;7.20;;;;;;;22.49;33.09;94155.03;6122629;28;102802;-77
2022/04/09 02:01:54;;;;;;;6.40;5.90;;;;;;;22.47;33.09;94175.91;6131803;28;102902;-78
2022/04/09 02:04:57;;;;;;;6.73;6.03;;;;;;;22.45;33.24;94177.34;6147012;28;102804;-77
2022/04/09 02:07:59;;;;;;;7.20;6.70;;;;;;;22.45;33.54;94167.47;6145026;28;102806;-78
2022/04/09 02:11:01;;;;;;;7.10;6.60;;;;;;;22.46;33.03;94166.38;6166012;28;102974;-77
2022/04/09 02:14:03;;;;;;;8.33;7.67;;;;;;;22.48;33.00;94174.81;6161125;28;102735;-78
2022/04/09 02:17:05;;;;;;;7.77;7.17;;;;;;;22.46;33.18;94165.59;6150642;28;102674;-80
2022/04/09 02:20:09;;;;;;;8.40;7.67;;;;;;;22.42;33.41;94166.25;6156234;28;102881;-78
2022/04/09 02:23:11;;;;;;;9.13;8.23;;;;;;;22.46;33.36;94157.59;6165834;28;103296;-78
2022/04/09 02:26:13;;;;;;;8.17;7.57;;;;;;;22.48;33.02;94174.81;6144633;28;102845;-82
2022/04/09 02:29:15;;;;;;;8.93;8.13;;;;;;;22.46;33.05;94153.03;6148519;28;102895;-78
2022/04/09 02:32:16;;;;;;;8.47;7.80;;;;;;;22.46;33.13;94162.91;6149919;28;102798;-80
2022/04/09 02:35:23;;;;;;;8.77;8.00;;;;;;;22.50;33.37;94174.47;6133013;28;103177;-78
2022/04/09 02:38:25;;;;;;;8.47;7.80;;;;;;;22.44;33.30;94155.25;6149057;28;102695;-79
2022/04/09 02:41:29;;;;;;;8.80;8.10;;;;;;;22.44;33.04;94165.91;6148023;28;102702;-78
2022/04/09 02:44:31;;;;;;;8.37;7.67;;;;;;;22.44;33.32;94165.91;6141114;28;102669;-78
2022/04/09 02:47:33;;;;;;;8.17;7.57;;;;;;;22.42;32.91;94171.56;6145240;28;102649;-78
2022/04/09 02:50:35;;;;;;;9.03;8.33;;;;;;;22.40;33.04;94149.03;6146003;28;102799;-78
2022/04/09 02:53:37;;;;;;;7.80;7.20;;;;;;;22.42;33.77;94174.25;6148351;28;103078;-78
2022/04/09 02:56:40;;;;;;;8.57;7.87;;;;;;;22.42;33.25;94152.13;6143048;28;102752;-79
2022/04/09 02:59:42;;;;;;;9.43;8.63;;;;;;;22.44;33.56;94160.59;6148293;28;103452;-79
2022/04/09 03:02:44;;;;;;;8.60;8.00;;;;;;;22.41;33.06;94155.91;6146858;28;102940;-80
2022/04/09 03:05:46;;;;;;;9.13;8.43;;;;;;;22.41;33.46;94161.25;6133805;28;102876;-79
2022/04/09 03:08:48;;;;;;;9.23;8.43;;;;;;;22.40;33.42;94146.38;6119912;28;102954;-80
2022/04/09 03:11:50;;;;;;;8.83;8.13;;;;;;;22.27;33.19;94134.09;6143183;28;102683;-78
2022/04/09 03:14:52;;;;;;;8.47;7.77;;;;;;;22.39;33.23;94147.47;6147194;28;103146;-79
2022/04/09 03:17:54;;;;;;;9.00;8.30;;;;;;;22.35;33.00;94142.03;6147159;28;102840;-79
2022/04/09 03:20:56;;;;;;;9.60;8.80;;;;;;;22.37;33.53;94139.81;6141356;28;102801;-80
2022/04/09 03:23:57;;;;;;;8.57;7.87;;;;;;;22.35;33.35;94150.03;6162859;28;102744;-79
2022/04/09 03:26:59;;;;;;;8.37;7.70;;;;;;;22.35;32.93;94142.03;6161538;28;102739;-81
2022/04/09 03:30:01;;;;;;;8.50;7.80;;;;;;;22.37;33.24;94139.03;6141118;28;103000;-80
2022/04/09 03:33:05;;;;;;;8.83;8.10;;;;;;;22.37;32.92;94131.03;6140922;28;103171;-80
2022/04/09 03:36:07;;;;;;;8.53;7.83;;;;;;;22.36;33.05;94132.91;6145427;28;102957;-80
2022/04/09 03:39:09;;;;;;;9.00;8.30;;;;;;;22.38;33.75;94137.91;6144949;28;102866;-80
2022/04/09 03:42:11;;;;;;;9.30;8.60;;;;;;;22.35;32.88;94131.38;6140808;28;102926;-80
2022/04/09 03:45:20;;;;;;;8.50;7.80;;;;;;;22.37;33.10;94142.47;6144242;28;103209;-78
2022/04/09 03:48:22;;;;;;;8.97;8.27;;;;;;;22.30;33.53;94134.22;6145113;28;102785;-80
2022/04/09 03:51:24;;;;;;;9.20;8.27;;;;;;;22.36;33.07;94132.16;6152526;28;102696;-79
2022/04/09 03:54:26;;;;;;;9.00;8.30;;;;;;;22.40;33.36;94146.38;6151113;28;102835;-79
2022/04/09 03:57:28;;;;;;;8.20;7.60;;;;;;;22.36;33.49;94142.81;6147670;28;103311;-81
2022/04/09 04:00:30;;;;;;;8.90;8.20;;;;;;;22.35;33.38;94136.69;6158675;28;102719;-79
2022/04/09 04:03:33;;;;;;;9.60;8.70;;;;;;;22.33;33.37;94138.88;6147062;28;103014;-79
2022/04/09 04:06:35;;;;;;;8.40;7.70;;;;;;;22.19;33.29;94114.44;6140366;28;102805;-77
2022/04/09 04:09:37;;;;;;;7.13;6.37;;;;;;;22.25;33.44;94138.97;6150779;28;103423;-79
2022/04/09 04:12:43;;;;;;;8.13;5.47;;;;;;;22.27;32.92;94147.44;6168104;28;103608;-78
2022/04/09 04:15:46;;;;;;;12.40;5.27;;;;;;;22.24;32.97;94143.53;6163929;28;102719;-77
2022/04/09 04:18:48;;;;;;;6.73;5.30;;;;;;;22.23;32.73;94138.53;6169566;28;102712;-77
2022/04/09 04:21:50;;;;;;;10.50;5.30;;;;;;;22.18;32.94;94130.72;6151410;28;103381;-81
2022/04/09 04:24:52;;;;;;;7.37;5.50;;;;;;;22.18;33.11;94130.72;6164731;28;103049;-77
2022/04/09 04:27:54;;;;;;;7.17;5.67;;;;;;;22.07;32.80;94114.38;6150255;28;102830;-77
2022/04/09 04:30:56;;;;;;;14.30;5.97;;;;;;;22.11;33.02;94118.72;6150924;28;102794;-81
2022/04/09 04:33:58;;;;;;;11.60;5.90;;;;;;;22.15;32.94;94126.06;6151025;28;103013;-77
2022/04/09 04:37:00;;;;;;;8.10;5.40;;;;;;;22.15;32.76;94128.72;6169173;28;102616;-79
2022/04/09 04:40:02;;;;;;;9.93;5.53;;;;;;;21.97;32.85;94126.22;6151021;28;102784;-78
2022/04/09 04:43:04;;;;;;;9.30;5.37;;;;;;;22.00;32.56;94114.91;6170248;28;102752;-79
2022/04/09 04:46:06;;;;;;;12.93;4.60;;;;;;;21.98;32.59;94119.78;6163132;28;103157;-77
2022/04/09 04:49:08;;;;;;;14.87;4.73;;;;;;;21.97;32.38;94118.22;6144653;28;102860;-79
2022/04/09 04:52:10;;;;;;;13.97;4.97;;;;;;;21.95;32.47;94112.44;6165995;28;102896;-78
2022/04/09 04:55:12;;;;;;;12.47;3.87;;;;;;;21.93;32.63;94109.34;6166887;28;103221;-76
2022/04/09 04:58:18;;;;;;;7.57;3.70;;;;;;;21.84;32.47;94119.28;6165466;28;103290;-77
2022/04/09 05:01:20;;;;;;;5.90;3.30;;;;;;;21.80;32.53;94105.81;6167860;28;103015;-76
2022/04/09 05:04:22;;;;;;;7.70;3.77;;;;;;;21.87;32.54;94097.34;6149371;28;103389;-77
2022/04/09 05:07:24;;;;;;;6.13;3.60;;;;;;;21.93;32.48;94096.03;6170252;28;102745;-77
2022/04/09 05:10:27;;;;;;;5.80;3.67;;;;;;;22.00;32.41;94101.59;6150139;28;102788;-78
2022/04/09 05:13:28;;;;;;;6.70;4.10;;;;;;;21.96;32.46;94098.03;6152854;28;102719;-78
2022/04/09 05:16:30;;;;;;;7.90;3.57;;;;;;;21.50;32.20;94091.78;6166725;28;102770;-75
2022/04/09 05:19:32;;;;;;;4.20;3.17;;;;;;;20.84;33.42;94110.19;6165624;28;102701;-76
2022/04/09 05:22:36;;;;;;;7.97;4.20;;;;;;;20.52;33.88;94108.91;6145200;28;102842;-75
2022/04/09 05:25:38;;;;;;;20.70;5.60;;;;;;;20.38;33.69;94094.25;6149478;28;102800;-77
2022/04/09 05:28:40;;;;;;;10.97;5.23;;;;;;;20.41;34.31;94094.38;6151381;28;102824;-79
2022/04/09 05:31:43;;;;;;;10.83;5.03;;;;;;;20.06;34.98;94096.31;6147878;28;102824;-78
2022/04/09 05:34:46;;;;;;;11.03;3.70;;;;;;;20.70;34.23;94091.00;6152350;28;102766;-80
2022/04/09 05:37:48;;;;;;;26.27;5.63;;;;;;;20.96;34.79;94074.91;6152492;28;102955;-78
2022/04/09 05:40:50;;;;;;;13.13;5.03;;;;;;;21.31;34.63;94104.75;6153165;28;102919;-78
2022/04/09 05:43:52;;;;;;;22.80;4.67;;;;;;;21.53;34.71;94101.03;6151498;28;102720;-82
2022/04/09 05:46:54;;;;;;;34.57;7.30;;;;;;;21.62;35.38;94101.72;6153312;28;102741;-78
2022/04/09 05:49:59;;;;;;;16.47;4.80;;;;;;;21.81;34.60;94093.28;6144043;28;102922;-78
2022/04/09 05:53:02;;;;;;;13.80;4.80;;;;;;;21.99;34.64;94089.38;6142785;28;102776;-80
2022/04/09 05:56:05;;;;;;;23.17;5.73;;;;;;;22.13;38.23;94088.31;6146554;28;102871;-80
2022/04/09 05:59:07;;;;;;;13.33;6.10;;;;;;;22.20;39.40;94091.22;6146264;28;102781;-77
2022/04/09 06:02:21;;;;;;;8.43;4.43;;;;;;;22.27;38.12;94099.44;6144607;28;102660;-75
2022/04/09 06:05:23;;;;;;;7.30;4.20;;;;;;;22.29;37.30;94108.69;6138070;28;103179;-75
2022/04/09 06:08:25;;;;;;;10.17;5.20;;;;;;;22.32;36.15;94105.34;6140055;28;102819;-75
2022/04/09 06:11:26;;;;;;;11.07;5.50;;;;;;;22.34;35.95;94111.13;6140039;28;102854;-76
2022/04/09 06:14:28;;;;;;;12.50;5.63;;;;;;;22.36;35.27;94127.59;6141402;28;102692;-77
2022/04/09 06:17:31;;;;;;;14.00;6.30;;;;;;;22.34;35.63;94129.00;6137894;28;102783;-77
2022/04/09 06:20:32;;;;;;;11.60;8.00;;;;;;;22.20;36.49;94118.66;6137665;28;104026;-73
2022/04/09 06:23:34;;;;;;;17.33;7.37;;;;;;;22.47;35.96;94127.16;6137747;28;102709;-74
2022/04/09 06:26:36;;;;;;;15.03;8.17;;;;;;;22.53;35.88;94123.97;6134885;28;103534;-75
2022/04/09 06:29:38;;;;;;;29.73;7.90;;;;;;;22.54;36.11;94122.06;6137125;28;103272;-74
2022/04/09 06:32:40;;;;;;;11.27;8.50;;;;;;;22.56;35.94;94125.19;6139418;28;102854;-74
2022/04/09 06:35:42;;;;;;;10.80;8.10;;;;;;;22.58;35.71;94107.78;6141323;28;102684;-75
2022/04/09 06:38:44;;;;;;;9.23;7.43;;;;;;;22.55;36.19;94105.75;6137419;28;102784;-77
2022/04/09 06:41:48;;;;;;;11.60;8.10;;;;;;;22.52;35.75;94097.63;6140836;28;102851;-74
2022/04/09 06:44:50;;;;;;;10.40;7.60;;;;;;;22.68;36.65;94104.69;6125234;28;102585;-76
2022/04/09 06:47:52;;;;;;;9.57;6.60;;;;;;;22.79;36.30;94113.00;6115381;28;103018;-76
2022/04/09 06:50:54;;;;;;;15.83;5.83;;;;;;;22.53;34.49;94105.28;6158849;28;102922;-76
2022/04/09 06:53:56;;;;;;;14.13;6.50;;;;;;;22.65;37.73;94113.31;6143385;28;102865;-79
2022/04/09 06:56:58;;;;;;;18.27;7.00;;;;;;;22.69;37.11;94126.78;6155340;28;102735;-79
2022/04/09 07:00:00;;;;;;;13.90;5.53;;;;;;;22.63;36.51;94110.22;6145582;28;102874;-77
2022/04/09 07:03:02;;;;;;;12.53;5.33;;;;;;;22.66;36.28;94120.22;6174123;28;103049;-80
2022/04/09 07:06:04;;;;;;;14.13;5.70;;;;;;;22.67;36.45;94113.75;6150116;28;102841;-81
2022/04/09 07:09:05;;;;;;;15.37;6.63;;;;;;;22.67;42.51;94107.66;6177424;28;102700;-82
2022/04/09 07:12:08;;;;;;;23.47;8.00;;;;;;;22.78;44.68;94110.69;6156387;28;103095;-82
2022/04/09 07:15:10;;;;;;;16.57;6.97;;;;;;;22.81;43.58;94116.13;6145489;28;102812;-78
2022/04/09 07:18:12;;;;;;;4.90;2.80;;;;;;;21.98;35.13;94106.47;6149566;28;102798;-78
2022/04/09 07:24:16;;;;;;;17.83;4.43;;;;;;;22.21;35.42;94106.09;6175609;22;103110;-76
2022/04/09 07:27:18;;;;;;;10.50;4.63;;;;;;;22.54;36.08;94122.06;6173687;28;103152;-78
2022/04/09 07:30:21;;;;;;;6.47;3.83;;;;;;;22.66;35.69;94122.88;6154377;28;102808;-80
2022/04/09 07:33:22;;;;;;;10.63;4.63;;;;;;;22.74;38.24;94099.91;6153739;28;102778;-81
2022/04/09 07:36:29;;;;;;;10.53;4.93;;;;;;;22.94;41.43;94108.91;6155928;28;104369;-78
2022/04/09 07:39:31;;;;;;;7.17;3.67;;;;;;;22.30;35.88;94104.91;6170162;28;103009;-79
2022/04/09 07:42:37;;;;;;;5.97;3.07;;;;;;;22.02;34.24;94091.41;6126812;28;102738;-80
2022/04/09 07:45:39;;;;;;;5.70;3.37;;;;;;;22.27;34.68;94086.13;6156180;28;102792;-79
2022/04/09 07:48:40;;;;;;;9.23;3.33;;;;;;;22.62;34.83;94095.31;6149094;28;103749;-77
2022/04/09 07:51:42;;;;;;;12.70;3.87;;;;;;;22.85;34.90;94097.56;6149544;28;102702;-78
2022/04/09 07:54:44;;;;;;;5.70;3.33;;;;;;;22.95;34.86;94084.56;6160248;28;102747;-76
2022/04/09 07:57:50;;;;;;;9.87;3.47;;;;;;;23.14;33.84;94089.31;6139373;28;103388;-77
2022/04/09 08:00:52;;;;;;;4.40;2.70;;;;;;;23.24;33.97;94088.88;6160537;28;103241;-76
2022/04/09 08:03:56;;;;;;;11.63;4.33;;;;;;;23.30;34.74;94090.22;6148255;28;102752;-77
2022/04/09 08:06:58;;;;;;;5.23;3.10;;;;;;;23.39;34.29;94092.00;6160932;28;102725;-78
2022/04/09 08:10:00;;;;;;;4.30;3.40;;;;;;;23.29;34.17;94059.31;6146132;28;103350;-77
2022/04/09 08:13:01;;;;;;;4.80;2.60;;;;;;;23.47;33.59;94077.72;6146559;28;102771;-77
2022/04/09 08:16:03;;;;;;;8.13;3.30;;;;;;;23.47;33.84;94072.38;6158801;28;102825;-78
2022/04/09 08:19:07;;;;;;;8.83;3.23;;;;;;;23.43;33.77;94071.50;6145153;28;103304;-76
2022/04/09 08:22:09;;;;;;;4.20;3.03;;;;;;;23.48;33.38;94076.59;6156376;28;102924;-80
2022/04/09 08:25:11;;;;;;;4.90;2.70;;;;;;;23.50;33.20;94088.50;6148092;28;103248;-80
2022/04/09 08:28:13;;;;;;;7.10;2.80;;;;;;;23.52;32.37;94080.97;6143401;28;102819;-80
2022/04/09 08:31:15;;;;;;;3.90;2.93;;;;;;;23.52;32.34;94080.97;6146648;28;103170;-79
2022/04/09 08:34:18;;;;;;;7.37;3.63;;;;;;;23.58;32.73;94084.16;6147547;28;102692;-81
2022/04/09 08:37:22;;;;;;;8.50;3.50;;;;;;;23.57;33.14;94066.59;6163002;28;102829;-80
2022/04/09 08:40:25;;;;;;;6.27;3.87;;;;;;;23.66;33.28;94074.44;6142787;28;103245;-77
2022/04/09 08:43:28;;;;;;;8.47;4.60;;;;;;;23.62;33.76;94058.31;6147915;28;104219;-78
2022/04/09 08:46:30;;;;;;;6.53;5.47;;;;;;;23.68;33.35;94064.19;6147262;28;103250;-78
2022/04/09 08:49:37;;;;;;;8.53;6.90;;;;;;;23.68;33.55;94064.97;6141532;28;102910;-78
2022/04/09 08:52:44;;;;;;;9.07;6.03;;;;;;;23.67;33.67;94066.09;6145936;28;103090;-80
2022/04/09 08:55:47;;;;;;;9.27;3.70;;;;;;;23.19;32.42;94058.97;6162330;28;102709;-76
2022/04/09 08:58:49;;;;;;;9.03;4.00;;;;;;;23.56;33.35;94049.78;6140151;28;103222;-76
2022/04/09 09:01:51;;;;;;;7.70;4.37;;;;;;;23.70;34.24;94045.97;6157889;28;103117;-78
2022/04/09 09:04:54;;;;;;;10.43;4.90;;;;;;;23.81;35.54;94042.44;6127426;28;103210;-79
2022/04/09 09:07:55;;;;;;;9.10;5.10;;;;;;;23.84;35.68;94041.75;6125717;28;103172;-80
2022/04/09 09:10:58;;;;;;;7.47;4.50;;;;;;;23.83;36.29;94031.41;6135254;28;103109;-76
2022/04/09 09:14:00;;;;;;;13.43;5.87;;;;;;;23.94;36.47;94034.38;6130114;28;103205;-76
2022/04/09 09:17:03;;;;;;;10.67;6.10;;;;;;;23.96;37.39;94032.13;6136534;28;103382;-75
2022/04/09 09:20:13;;;;;;;10.67;6.60;;;;;;;23.96;36.88;94029.47;6162907;28;103227;-76
2022/04/09 09:23:27;;;;;;;7.97;5.70;;;;;;;24.00;37.25;94047.16;6135871;28;102958;-76
2022/04/09 09:26:29;;;;;;;10.70;6.27;;;;;;;24.02;37.55;94041.47;6163240;28;103017;-80
2022/04/09 09:29:33;;;;;;;8.80;5.53;;;;;;;23.93;36.39;94030.94;6144282;28;103657;-79
2022/04/09 09:32:35;;;;;;;11.47;5.20;;;;;;;23.86;36.88;94023.50;6162743;28;103142;-80
2022/04/09 09:35:52;;;;;;;13.47;6.20;;;;;;;23.85;37.35;94018.47;6163553;28;103332;-80
2022/04/09 09:39:01;;;;;;;13.07;6.87;;;;;;;23.85;38.42;94024.59;6146420;28;103523;-78
2022/04/09 09:42:04;;;;;;;10.43;6.03;;;;;;;23.94;38.68;94023.69;6159435;28;103466;-78
2022/04/09 09:45:07;;;;;;;8.63;4.60;;;;;;;23.93;38.47;94027.47;6143194;28;103431;-77
2022/04/09 09:48:28;;;;;;;13.50;6.00;;;;;;;23.95;38.62;94026.00;6141211;28;102904;-83
2022/04/09 09:51:32;;;;;;;15.23;6.50;;;;;;;23.85;37.88;94013.91;6150794;28;102812;-77
2022/04/09 09:54:55;;;;;;;11.40;7.47;;;;;;;23.80;36.66;94000.81;6144955;28;102773;-78
2022/04/09 09:57:57;;;;;;;9.60;6.80;;;;;;;23.73;36.91;94011.31;6134994;28;102871;-77
2022/04/09 10:00:59;;;;;;;11.23;7.40;;;;;;;23.69;36.25;93998.97;6122400;28;102732;-77
2022/04/09 10:04:03;;;;;;;11.73;9.00;;;;;;;23.72;36.63;93999.09;6123023;28;102776;-78
2022/04/09 10:07:05;;;;;;;14.10;12.63;;;;;;;23.73;36.14;93989.19;6137772;28;102867;-78
2022/04/09 10:10:08;;;;;;;17.07;15.53;;;;;;;23.66;36.25;93989.75;6105432;28;102888;-76
2022/04/09 10:13:10;;;;;;;20.43;18.53;;;;;;;23.68;36.42;93984.84;6136858;28;102860;-78
2022/04/09 10:16:18;;;;;;;18.20;16.60;;;;;;;23.64;36.10;93983.97;6104273;28;102773;-78
2022/04/09 10:19:22;;;;;;;20.60;17.83;;;;;;;23.58;35.72;93977.34;6115892;28;102772;-80
2022/04/09 10:22:31;;;;;;;29.70;26.93;;;;;;;23.61;35.94;93982.00;6119771;28;103248;-78
2022/04/09 10:25:34;;;;;;;27.87;25.27;;;;;;;23.49;35.79;93964.13;6138266;28;102666;-77
2022/04/09 10:28:38;;;;;;;24.00;21.70;;;;;;;23.54;36.15;93981.81;6135775;28;103548;-77
2022/04/09 10:31:51;;;;;;;25.03;22.63;;;;;;;23.51;35.77;93983.25;6142238;28;103518;-77
2022/04/09 10:34:55;;;;;;;23.30;21.30;;;;;;;23.51;36.16;93987.81;6143263;28;103025;-76
2022/04/09 10:38:15;;;;;;;24.07;21.87;;;;;;;23.49;36.14;93982.03;6144539;28;102995;-79
2022/04/09 10:41:24;;;;;;;26.67;24.17;;;;;;;23.47;36.00;93987.72;6138937;28;102817;-77
2022/04/09 10:44:44;;;;;;;24.30;22.20;;;;;;;23.46;35.97;93974.72;6143851;28;102935;-77
2022/04/09 10:48:06;;;;;;;22.73;20.73;;;;;;;23.47;36.27;93985.03;6142985;28;102788;-78
2022/04/09 10:51:14;;;;;;;21.60;19.60;;;;;;;23.47;35.73;93966.34;6163188;28;102894;-77
2022/04/09 10:54:20;;;;;;;21.43;19.57;;;;;;;23.45;35.91;93971.25;6149571;28;102739;-77
2022/04/09 10:57:23;;;;;;;20.03;18.43;;;;;;;23.45;35.68;93967.81;6149659;28;103032;-77
2022/04/09 11:00:32;;;;;;;20.83;18.87;;;;;;;23.38;35.60;93941.72;6134781;28;102724;-78
2022/04/09 11:03:33;;;;;;;19.53;17.83;;;;;;;23.40;35.26;93949.38;6146555;28;103190;-77
2022/04/09 11:06:45;;;;;;;25.43;23.13;;;;;;;23.42;35.41;93958.59;6167124;28;102722;-77
2022/04/09 11:09:56;;;;;;;24.60;22.40;;;;;;;23.40;35.33;93944.03;6149124;28;102786;-77
2022/04/09 11:12:58;;;;;;;21.90;20.00;;;;;;;23.36;35.57;93940.50;6162240;28;103133;-77
2022/04/09 11:16:01;;;;;;;22.50;20.60;;;;;;;23.38;35.10;93941.72;6149532;28;102705;-78
2022/04/09 11:19:03;;;;;;;23.63;21.57;;;;;;;23.36;35.43;93935.16;6165382;28;103214;-79
2022/04/09 11:22:05;;;;;;;27.33;25.07;;;;;;;23.32;35.37;93921.69;6156604;28;102994;-78
2022/04/09 11:25:08;;;;;;;25.20;22.97;;;;;;;23.27;35.47;93922.69;6169059;28;102655;-78
2022/04/09 11:28:18;;;;;;;29.53;26.90;;;;;;;23.35;35.27;93941.59;6156330;28;102884;-78
2022/04/09 11:31:22;;;;;;;30.57;28.10;;;;;;;23.33;35.23;93930.47;6156528;28;103347;-79
2022/04/09 11:34:25;;;;;;;30.43;27.77;;;;;;;23.29;35.03;93920.50;6152971;28;102736;-76
2022/04/09 11:37:32;;;;;;;29.20;26.80;;;;;;;23.33;35.17;93928.59;6171750;28;103521;-77
2022/04/09 11:40:34;;;;;;;28.97;26.47;;;;;;;23.26;35.22;93915.03;6174566;28;102672;-76
2022/04/09 11:43:46;;;;;;;28.43;26.03;;;;;;;23.32;35.39;93915.59;6156342;28;103316;-78
2022/04/09 11:46:48;;;;;;;30.67;28.10;;;;;;;23.30;35.06;93922.03;6170892;28;102771;-78
2022/04/09 11:49:52;;;;;;;28.90;26.60;;;;;;;23.26;35.16;93905.13;6155836;28;103063;-78
2022/04/09 11:52:54;;;;;;;28.70;26.30;;;;;;;23.31;35.48;93922.81;6156814;28;102711;-77
2022/04/09 11:56:00;;;;;;;29.70;27.20;;;;;;;23.27;35.13;93913.91;6174800;28;102671;-77
2022/04/09 11:59:01;;;;;;;32.77;30.17;;;;;;;23.28;35.08;93904.78;6153024;28;103255;-76
2022/04/09 12:02:04;;;;;;;32.17;29.47;;;;;;;23.29;34.99;93911.72;6156272;28;102995;-77
2022/04/09 12:05:10;;;;;;;32.90;30.30;;;;;;;23.29;35.02;93906.38;6155869;28;102747;-77
2022/04/09 12:08:25;;;;;;;30.73;28.23;;;;;;;23.26;35.20;93902.47;6151720;28;102814;-77
2022/04/09 12:11:26;;;;;;;30.47;27.90;;;;;;;23.26;34.99;93907.81;6155536;28;103041;-78
2022/04/09 12:14:28;;;;;;;31.03;28.37;;;;;;;23.28;35.02;93908.22;6155725;28;102631;-77
2022/04/09 12:17:32;;;;;;;30.73;28.23;;;;;;;23.23;35.04;93897.03;6154522;28;102793;-77
2022/04/09 12:20:39;;;;;;;30.33;27.80;;;;;;;23.27;35.13;93898.69;6151286;28;102788;-77
2022/04/09 12:23:41;;;;;;;29.43;27.00;;;;;;;23.18;34.79;93879.34;6171020;28;102808;-78
2022/04/09 12:26:45;;;;;;;27.83;25.57;;;;;;;23.13;34.73;93876.94;6173103;28;102611;-78
2022/04/09 12:29:55;;;;;;;28.87;26.33;;;;;;;23.28;34.94;93888.78;6155111;28;103596;-77
2022/04/09 12:33:08;;;;;;;30.50;27.90;;;;;;;23.23;34.80;93881.78;6155317;28;102700;-78
2022/04/09 12:36:10;;;;;;;34.00;31.20;;;;;;;23.23;34.92;93876.47;6154045;28;102674;-80
2022/04/09 12:39:25;;;;;;;35.53;32.47;;;;;;;23.26;34.74;93880.34;6154292;28;102896;-77
2022/04/09 12:42:33;;;;;;;39.40;36.10;;;;;;;23.23;34.98;93860.44;6151352;28;102802;-78
2022/04/09 12:45:35;;;;;;;39.87;36.60;;;;;;;23.22;34.77;93858.91;6154914;28;102782;-77
2022/04/09 12:48:46;;;;;;;39.87;36.47;;;;;;;23.20;34.64;93861.13;6130609;28;102774;-77
2022/04/09 12:51:49;;;;;;;38.10;34.90;;;;;;;23.23;35.06;93857.78;6126895;28;102793;-77
2022/04/09 12:54:53;;;;;;;39.97;36.67;;;;;;;23.25;34.61;93844.09;6130546;28;103172;-79
2022/04/09 12:57:55;;;;;;;39.60;36.43;;;;;;;23.22;34.88;93844.78;6130568;28;102812;-77
2022/04/09 13:00:57;;;;;;;39.87;36.57;;;;;;;23.18;34.52;93836.66;6130750;28;102736;-77
2022/04/09 13:04:00;;;;;;;39.43;36.23;;;;;;;23.20;34.63;93828.31;6126357;28;102843;-77
2022/04/09 13:07:02;;;;;;;40.77;37.47;;;;;;;23.21;34.68;93836.00;6147405;28;102685;-77
2022/04/09 13:10:05;;;;;;;41.73;38.27;;;;;;;23.21;35.10;93838.66;6129508;28;102696;-77
2022/04/09 13:13:07;;;;;;;40.23;36.93;;;;;;;23.19;35.04;93826.78;6146854;28;102879;-77
2022/04/09 13:16:09;;;;;;;40.57;37.27;;;;;;;23.22;34.73;93832.19;6124093;28;103770;-77
2022/04/09 13:19:11;;;;;;;37.50;34.43;;;;;;;23.23;35.02;93832.97;6146322;28;103257;-77
2022/04/09 13:22:15;;;;;;;38.50;35.30;;;;;;;23.19;34.79;93827.56;6146915;28;102800;-77
2022/04/09 13:25:19;;;;;;;37.73;34.53;;;;;;;23.22;35.05;93826.09;6142132;28;102881;-77
2022/04/09 13:28:21;;;;;;;38.10;35.00;;;;;;;23.18;34.57;93817.19;6146439;28;102700;-77
2022/04/09 13:31:28;;;;;;;38.30;35.13;;;;;;;23.17;34.85;93808.41;6129028;28;102685;-78
2022/04/09 13:34:30;;;;;;;37.30;34.20;;;;;;;23.18;34.51;93815.31;6147058;28;102668;-79
2022/04/09 13:37:33;;;;;;;36.23;33.17;;;;;;;23.20;34.69;93813.09;6143663;28;103871;-77
2022/04/09 13:40:35;;;;;;;37.43;34.43;;;;;;;23.19;34.64;93806.19;6128100;28;102834;-76
2022/04/09 13:43:37;;;;;;;35.13;32.07;;;;;;;22.99;34.93;93770.59;6129226;28;103051;-79
2022/04/09 13:46:38;;;;;;;35.37;32.50;;;;;;;23.16;34.52;93804.19;6150414;28;103251;-77
2022/04/09 13:49:41;;;;;;;34.13;31.27;;;;;;;23.18;35.05;93801.97;6169806;28;102706;-78
2022/04/09 13:52:42;;;;;;;34.70;31.90;;;;;;;23.15;34.98;93796.53;6170496;28;102829;-79
2022/04/09 13:55:45;;;;;;;35.67;32.80;;;;;;;23.16;35.17;93800.75;6166173;28;102847;-77
2022/04/09 13:58:48;;;;;;;33.70;30.90;;;;;;;23.20;35.32;93802.41;6166182;28;103193;-79
2022/04/09 14:01:51;;;;;;;34.77;31.77;;;;;;;23.18;35.22;93795.84;6163140;28;103221;-79
2022/04/09 14:04:53;;;;;;;32.70;30.00;;;;;;;23.20;35.62;93794.41;6143619;28;102834;-77
2022/04/09 14:07:55;;;;;;;35.03;32.13;;;;;;;23.18;35.75;93793.19;6158463;28;102870;-77
2022/04/09 14:10:57;;;;;;;34.60;31.60;;;;;;;23.16;35.40;93790.84;6136991;28;103467;-77